QFA016C LSZB-ELLX
Flight info
| Callsign | QFA016C |
|---|---|
| Flight time | 0h 40m |
| Altitude | 28000 |
| Route | KONOL Z59 LUMEL Z600 HR A242 GTQ |
| Aircraft | A320/M-SDE3FGHIRWY/LB1 |
Departure
| Time | 2026-04-22 10:55 |
|---|---|
| Airport | Bern Airport (LSZB) |
Arrival
| Time | 2026-04-22 11:36 |
|---|---|
| Airport | Luxembourg-Findel International Airport (ELLX) |
| Time | Latitude | Longitude | Altitude | Speed | Heading |
|---|---|---|---|---|---|
| 2026-04-22 10:53 | 46.91006 | 7.50350 | 1682 ft | 0 kts | 139° |
| 2026-04-22 10:53 | 46.90986 | 7.50380 | 1684 ft | 10 kts | 135° |
| 2026-04-22 10:54 | 46.90923 | 7.50399 | 1681 ft | 11 kts | 211° |
| 2026-04-22 10:54 | 46.90907 | 7.50336 | 1682 ft | 2 kts | 300° |
| 2026-04-22 10:54 | 46.90908 | 7.50335 | 1682 ft | 0 kts | 300° |
| 2026-04-22 10:55 | 46.90941 | 7.50266 | 1680 ft | 39 kts | 314° |
| 2026-04-22 10:55 | 46.91389 | 7.49736 | 1681 ft | 123 kts | 320° |
| 2026-04-22 10:55 | 46.92200 | 7.48771 | 1975 ft | 162 kts | 322° |
| 2026-04-22 10:55 | 46.93117 | 7.47756 | 2819 ft | 169 kts | 321° |
| 2026-04-22 10:56 | 46.94071 | 7.46614 | 3577 ft | 186 kts | 319° |
| 2026-04-22 10:56 | 46.95070 | 7.45383 | 4590 ft | 190 kts | 319° |
| 2026-04-22 10:56 | 46.96185 | 7.44332 | 5575 ft | 195 kts | 345° |
| 2026-04-22 10:56 | 46.97532 | 7.44376 | 6393 ft | 199 kts | 22° |
| 2026-04-22 10:57 | 46.98594 | 7.45639 | 7104 ft | 201 kts | 60° |
| 2026-04-22 10:57 | 46.98953 | 7.47593 | 7846 ft | 199 kts | 84° |
| 2026-04-22 10:57 | 46.99077 | 7.49646 | 8425 ft | 212 kts | 86° |
| 2026-04-22 10:57 | 46.99141 | 7.51908 | 8899 ft | 229 kts | 88° |
| 2026-04-22 10:58 | 46.99186 | 7.54241 | 9629 ft | 234 kts | 88° |
| 2026-04-22 10:58 | 46.99233 | 7.56664 | 10447 ft | 237 kts | 88° |
| 2026-04-22 10:58 | 46.99289 | 7.59074 | 11262 ft | 238 kts | 87° |
| 2026-04-22 10:58 | 46.99662 | 7.61372 | 12200 ft | 232 kts | 58° |
| 2026-04-22 10:59 | 47.00789 | 7.63014 | 12963 ft | 232 kts | 25° |
| 2026-04-22 10:59 | 47.02384 | 7.63513 | 13412 ft | 246 kts | 352° |
| 2026-04-22 10:59 | 47.04003 | 7.62506 | 13748 ft | 267 kts | 321° |
| 2026-04-22 10:59 | 47.05480 | 7.60661 | 14057 ft | 291 kts | 318° |
| 2026-04-22 11:00 | 47.07063 | 7.58618 | 14336 ft | 315 kts | 318° |
| 2026-04-22 11:00 | 47.08766 | 7.56408 | 14593 ft | 337 kts | 318° |
| 2026-04-22 11:00 | 47.10561 | 7.54092 | 15129 ft | 348 kts | 318° |
| 2026-04-22 11:00 | 47.12398 | 7.51740 | 15843 ft | 353 kts | 319° |
| 2026-04-22 11:01 | 47.14264 | 7.49363 | 16559 ft | 357 kts | 319° |
| 2026-04-22 11:01 | 47.16151 | 7.46955 | 17263 ft | 361 kts | 319° |
| 2026-04-22 11:01 | 47.18056 | 7.44520 | 17959 ft | 364 kts | 319° |
| 2026-04-22 11:01 | 47.19981 | 7.42060 | 18640 ft | 368 kts | 319° |
| 2026-04-22 11:02 | 47.21920 | 7.39587 | 19276 ft | 372 kts | 319° |
| 2026-04-22 11:02 | 47.23874 | 7.37089 | 19852 ft | 378 kts | 319° |
| 2026-04-22 11:02 | 47.25865 | 7.34541 | 20491 ft | 381 kts | 319° |
| 2026-04-22 11:02 | 47.27870 | 7.31968 | 21095 ft | 384 kts | 319° |
| 2026-04-22 11:03 | 47.29896 | 7.29363 | 21645 ft | 388 kts | 319° |
| 2026-04-22 11:03 | 47.31939 | 7.26732 | 22192 ft | 391 kts | 319° |
| 2026-04-22 11:03 | 47.33996 | 7.24082 | 22735 ft | 393 kts | 319° |
| 2026-04-22 11:03 | 47.36061 | 7.21417 | 23256 ft | 396 kts | 319° |
| 2026-04-22 11:04 | 47.38142 | 7.18727 | 23743 ft | 400 kts | 319° |
| 2026-04-22 11:04 | 47.40139 | 7.15858 | 24208 ft | 403 kts | 310° |
| 2026-04-22 11:04 | 47.41788 | 7.12501 | 24691 ft | 405 kts | 300° |
| 2026-04-22 11:04 | 47.43141 | 7.08846 | 25154 ft | 407 kts | 298° |
| 2026-04-22 11:05 | 47.44476 | 7.05193 | 25599 ft | 410 kts | 298° |
| 2026-04-22 11:05 | 47.45837 | 7.01482 | 26028 ft | 413 kts | 298° |
| 2026-04-22 11:05 | 47.47212 | 6.97741 | 26449 ft | 415 kts | 298° |
| 2026-04-22 11:05 | 47.48599 | 6.93969 | 26881 ft | 418 kts | 298° |
| 2026-04-22 11:06 | 47.49990 | 6.90175 | 27278 ft | 420 kts | 298° |
| 2026-04-22 11:06 | 47.51383 | 6.86362 | 27680 ft | 423 kts | 298° |
| 2026-04-22 11:06 | 47.52781 | 6.82520 | 27949 ft | 425 kts | 298° |
| 2026-04-22 11:06 | 47.54195 | 6.78729 | 28002 ft | 413 kts | 302° |
| 2026-04-22 11:07 | 47.55906 | 6.75432 | 28011 ft | 399 kts | 314° |
| 2026-04-22 11:07 | 47.57977 | 6.72762 | 28013 ft | 394 kts | 325° |
| 2026-04-22 11:07 | 47.60343 | 6.70741 | 28011 ft | 393 kts | 336° |
| 2026-04-22 11:08 | 47.65418 | 6.67759 | 28000 ft | 393 kts | 342° |
| 2026-04-22 11:08 | 47.68085 | 6.66869 | 28012 ft | 393 kts | 353° |
| 2026-04-22 11:08 | 47.70814 | 6.66698 | 28011 ft | 393 kts | 1° |
| 2026-04-22 11:09 | 47.76258 | 6.66918 | 28009 ft | 394 kts | 1° |
| 2026-04-22 11:09 | 47.81743 | 6.67129 | 28007 ft | 394 kts | 1° |
| 2026-04-22 11:10 | 47.87224 | 6.67337 | 28002 ft | 394 kts | 1° |
| 2026-04-22 11:10 | 47.91787 | 6.67507 | 28007 ft | 394 kts | 1° |
| 2026-04-22 11:11 | 47.97278 | 6.67708 | 28004 ft | 394 kts | 1° |
| 2026-04-22 11:11 | 48.02767 | 6.67918 | 28008 ft | 394 kts | 1° |
| 2026-04-22 11:12 | 48.08256 | 6.68132 | 28006 ft | 394 kts | 1° |
| 2026-04-22 11:12 | 48.13706 | 6.68343 | 28005 ft | 394 kts | 1° |
| 2026-04-22 11:13 | 48.19184 | 6.68542 | 28007 ft | 393 kts | 1° |
| 2026-04-22 11:13 | 48.24661 | 6.68746 | 28006 ft | 393 kts | 1° |
| 2026-04-22 11:14 | 48.30128 | 6.68959 | 28008 ft | 393 kts | 1° |
| 2026-04-22 11:14 | 48.35601 | 6.69176 | 28009 ft | 393 kts | 1° |
| 2026-04-22 11:15 | 48.41064 | 6.69391 | 28010 ft | 392 kts | 1° |
| 2026-04-22 11:15 | 48.46486 | 6.69595 | 28006 ft | 392 kts | 1° |
| 2026-04-22 11:16 | 48.51928 | 6.69795 | 27811 ft | 386 kts | 1° |
| 2026-04-22 11:16 | 48.54602 | 6.69896 | 27560 ft | 382 kts | 1° |
| 2026-04-22 11:16 | 48.57247 | 6.70000 | 27310 ft | 379 kts | 1° |
| 2026-04-22 11:16 | 48.59884 | 6.70103 | 27061 ft | 378 kts | 1° |
| 2026-04-22 11:17 | 48.62505 | 6.70201 | 26814 ft | 374 kts | 1° |
| 2026-04-22 11:17 | 48.65090 | 6.70299 | 26424 ft | 370 kts | 1° |
| 2026-04-22 11:17 | 48.67655 | 6.70396 | 25983 ft | 367 kts | 1° |
| 2026-04-22 11:17 | 48.70190 | 6.70495 | 25524 ft | 365 kts | 1° |
| 2026-04-22 11:18 | 48.72732 | 6.70600 | 25064 ft | 362 kts | 1° |
| 2026-04-22 11:18 | 48.75243 | 6.70705 | 24598 ft | 360 kts | 1° |
| 2026-04-22 11:18 | 48.77748 | 6.70806 | 24122 ft | 359 kts | 1° |
| 2026-04-22 11:18 | 48.80234 | 6.70901 | 23651 ft | 357 kts | 1° |
| 2026-04-22 11:19 | 48.82711 | 6.70995 | 23180 ft | 355 kts | 1° |
| 2026-04-22 11:19 | 48.85146 | 6.71091 | 22721 ft | 354 kts | 1° |
| 2026-04-22 11:19 | 48.87603 | 6.71189 | 22265 ft | 353 kts | 1° |
| 2026-04-22 11:19 | 48.90051 | 6.71286 | 21811 ft | 351 kts | 1° |
| 2026-04-22 11:20 | 48.92489 | 6.71381 | 21371 ft | 350 kts | 1° |
| 2026-04-22 11:20 | 48.94918 | 6.71473 | 20915 ft | 348 kts | 1° |
| 2026-04-22 11:20 | 48.97333 | 6.71559 | 20477 ft | 346 kts | 360° |
| 2026-04-22 11:20 | 48.99725 | 6.71210 | 20039 ft | 344 kts | 347° |
| 2026-04-22 11:21 | 49.02041 | 6.70353 | 19598 ft | 342 kts | 346° |
| 2026-04-22 11:21 | 49.04346 | 6.69476 | 19169 ft | 340 kts | 346° |
| 2026-04-22 11:21 | 49.06640 | 6.68606 | 18739 ft | 339 kts | 346° |
| 2026-04-22 11:21 | 49.08895 | 6.67752 | 18314 ft | 338 kts | 346° |
| 2026-04-22 11:22 | 49.11179 | 6.66884 | 17888 ft | 336 kts | 346° |
| 2026-04-22 11:22 | 49.13447 | 6.66022 | 17470 ft | 335 kts | 346° |
| 2026-04-22 11:22 | 49.15705 | 6.65163 | 17051 ft | 334 kts | 346° |
| 2026-04-22 11:22 | 49.17954 | 6.64307 | 16639 ft | 333 kts | 346° |
| 2026-04-22 11:23 | 49.20199 | 6.63449 | 16227 ft | 331 kts | 346° |
| 2026-04-22 11:23 | 49.22431 | 6.62589 | 15821 ft | 330 kts | 344° |
| 2026-04-22 11:23 | 49.24568 | 6.61333 | 15422 ft | 328 kts | 335° |
| 2026-04-22 11:23 | 49.26650 | 6.59907 | 15022 ft | 327 kts | 335° |
| 2026-04-22 11:24 | 49.28728 | 6.58484 | 14630 ft | 326 kts | 335° |
| 2026-04-22 11:24 | 49.30798 | 6.57060 | 14222 ft | 325 kts | 335° |
| 2026-04-22 11:24 | 49.32861 | 6.55637 | 13818 ft | 324 kts | 335° |
| 2026-04-22 11:24 | 49.34918 | 6.54215 | 13414 ft | 323 kts | 335° |
| 2026-04-22 11:25 | 49.36929 | 6.52823 | 13016 ft | 322 kts | 335° |
| 2026-04-22 11:25 | 49.38976 | 6.51406 | 12609 ft | 320 kts | 335° |
| 2026-04-22 11:25 | 49.41009 | 6.49998 | 12201 ft | 319 kts | 335° |
| 2026-04-22 11:25 | 49.43089 | 6.48860 | 11784 ft | 318 kts | 347° |
| 2026-04-22 11:26 | 49.45305 | 6.48445 | 11211 ft | 321 kts | 355° |
| 2026-04-22 11:26 | 49.47508 | 6.48197 | 10891 ft | 315 kts | 355° |
| 2026-04-22 11:26 | 49.49677 | 6.47947 | 10190 ft | 311 kts | 355° |
| 2026-04-22 11:26 | 49.51780 | 6.47403 | 9561 ft | 302 kts | 338° |
| 2026-04-22 11:27 | 49.53498 | 6.45748 | 9154 ft | 288 kts | 315° |
| 2026-04-22 11:27 | 49.54605 | 6.43239 | 8589 ft | 281 kts | 290° |
| 2026-04-22 11:27 | 49.54946 | 6.40305 | 8257 ft | 279 kts | 268° |
| 2026-04-22 11:27 | 49.54541 | 6.37442 | 7921 ft | 278 kts | 247° |
| 2026-04-22 11:28 | 49.53771 | 6.34671 | 7576 ft | 279 kts | 246° |
| 2026-04-22 11:28 | 49.53013 | 6.31974 | 7240 ft | 277 kts | 246° |
| 2026-04-22 11:28 | 49.52251 | 6.29262 | 6900 ft | 275 kts | 247° |
| 2026-04-22 11:28 | 49.51559 | 6.26529 | 6609 ft | 274 kts | 250° |
| 2026-04-22 11:29 | 49.50928 | 6.23771 | 6324 ft | 273 kts | 251° |
| 2026-04-22 11:29 | 49.50322 | 6.21016 | 6036 ft | 271 kts | 251° |
| 2026-04-22 11:29 | 49.49719 | 6.18263 | 5752 ft | 270 kts | 251° |
| 2026-04-22 11:29 | 49.49115 | 6.15530 | 5470 ft | 269 kts | 251° |
| 2026-04-22 11:30 | 49.48515 | 6.12848 | 5197 ft | 268 kts | 251° |
| 2026-04-22 11:30 | 49.47905 | 6.10135 | 4964 ft | 261 kts | 251° |
| 2026-04-22 11:30 | 49.47321 | 6.07546 | 4841 ft | 249 kts | 252° |
| 2026-04-22 11:30 | 49.47085 | 6.04994 | 4661 ft | 239 kts | 276° |
| 2026-04-22 11:31 | 49.47625 | 6.02645 | 4447 ft | 235 kts | 303° |
| 2026-04-22 11:31 | 49.48760 | 6.00875 | 4162 ft | 233 kts | 325° |
| 2026-04-22 11:31 | 49.50177 | 5.99817 | 4147 ft | 222 kts | 343° |
| 2026-04-22 11:31 | 49.51665 | 5.99483 | 4095 ft | 213 kts | 1° |
| 2026-04-22 11:32 | 49.53089 | 5.99810 | 3999 ft | 201 kts | 17° |
| 2026-04-22 11:32 | 49.54331 | 6.00676 | 3813 ft | 193 kts | 32° |
| 2026-04-22 11:32 | 49.55333 | 6.01958 | 3623 ft | 183 kts | 47° |
| 2026-04-22 11:32 | 49.56054 | 6.03508 | 3413 ft | 170 kts | 60° |
| 2026-04-22 11:33 | 49.56627 | 6.05036 | 3177 ft | 158 kts | 60° |
| 2026-04-22 11:33 | 49.57156 | 6.06447 | 2978 ft | 148 kts | 60° |
| 2026-04-22 11:33 | 49.57664 | 6.07801 | 2784 ft | 144 kts | 60° |
| 2026-04-22 11:33 | 49.58160 | 6.09129 | 2587 ft | 143 kts | 60° |
| 2026-04-22 11:34 | 49.58655 | 6.10452 | 2407 ft | 142 kts | 60° |
| 2026-04-22 11:34 | 49.59141 | 6.11752 | 2228 ft | 141 kts | 60° |
| 2026-04-22 11:34 | 49.59631 | 6.13064 | 2042 ft | 141 kts | 60° |
| 2026-04-22 11:34 | 49.60118 | 6.14370 | 1851 ft | 140 kts | 60° |
| 2026-04-22 11:35 | 49.60604 | 6.15671 | 1667 ft | 140 kts | 60° |
| 2026-04-22 11:35 | 49.61088 | 6.16970 | 1477 ft | 140 kts | 60° |
| 2026-04-22 11:35 | 49.61569 | 6.18262 | 1298 ft | 139 kts | 60° |
| 2026-04-22 11:35 | 49.62050 | 6.19549 | 1207 ft | 138 kts | 60° |
| 2026-04-22 11:36 | 49.62354 | 6.20359 | 1212 ft | 36 kts | 60° |
| 2026-04-22 11:36 | 49.62486 | 6.20523 | 1208 ft | 12 kts | 320° |
| 2026-04-22 11:36 | 49.62511 | 6.20494 | 1203 ft | 0 kts | 328° |
| 2026-04-22 11:37 | 49.62527 | 6.20481 | 1201 ft | 7 kts | 333° |
| 2026-04-22 11:37 | 49.62585 | 6.20468 | 1198 ft | 10 kts | 17° |
| 2026-04-22 11:37 | 49.62635 | 6.20533 | 1197 ft | 9 kts | 47° |
| 2026-04-22 11:37 | 49.62680 | 6.20595 | 1197 ft | 8 kts | 37° |
| 2026-04-22 11:38 | 49.62724 | 6.20646 | 1197 ft | 8 kts | 36° |
| 2026-04-22 11:38 | 49.62772 | 6.20709 | 1196 ft | 13 kts | 45° |
| 2026-04-22 11:38 | 49.62912 | 6.21100 | 1197 ft | 23 kts | 65° |
| 2026-04-22 11:39 | 49.62980 | 6.21332 | 1197 ft | 25 kts | 65° |
| 2026-04-22 11:39 | 49.63053 | 6.21568 | 1197 ft | 22 kts | 62° |
| 2026-04-22 11:39 | 49.63159 | 6.21595 | 1196 ft | 18 kts | 333° |
| 2026-04-22 11:39 | 49.63250 | 6.21595 | 1196 ft | 14 kts | 41° |
| 2026-04-22 11:40 | 49.63327 | 6.21641 | 1195 ft | 11 kts | 339° |
| 2026-04-22 11:40 | 49.63339 | 6.21630 | 1195 ft | 0 kts | 328° |